首页
METAR-TAF:

METAR-TAF

机场 :

貝爾格勒尼古拉·特斯拉機場

贝尔格莱德, 塞尔维亚

纬度: 44-49N, 经度: 020-17E, 海拔: 96米

当前天气观测

该预报发布于25分钟前的14:00 UTC
风速25节,风向东南
温度 6°C
湿度 87%
气压 1009 hPa
能见度10公里或以上
1500米以下无云,无积雨云

METAR: LYBE 201400Z 13025KT CAVOK 06/04 Q1009 NOSIG

时间: 15:25 (14:25 UTC)

预报

该预报发布于3小时和25分钟前的11:00 UTC
预报有效从20日的 12点(UTC)到 21日的 12点(UTC)
风速15节,风向东转东南
能见度10公里或以上
散云层高于2000英尺
多云层高于4000英尺
短暂存在
从 20日的 12点(UTC)到 20日的 18点(UTC)
风速17节,风向东转东南,有时为27节阵风
成为
从 21日的 05点(UTC)到 21日的 07点(UTC)
风速5节,风向东转东南
能見度: 4000
多云层高于1500英尺
多云层高于2700英尺
小雨, 轻雾

TAF: LYBE 201100Z 2012/2112 12015KT 9999 SCT020 BKN040 TX06/2012Z TN03/2106Z TEMPO 2012/2018 12017G27KT RA BECMG 2105/2107 12005KT 4000 -RA BR BKN015 BKN027

超过4000个机场的气象观测和天气预报(METAR&TAF报告)。

可查询的气象台以黄色和红色小点在地图上表示。

将鼠标移到小点上方,可查看气象台名称。

然后点击查看天气观测和预报。

如需切换地图:点击带黑十字的绿色按钮放大地图;点击带横线的绿色按钮缩小地图;或者点击绿色箭头查看邻近地区的地图。


METAR-TAF: